sensor_id;sensor_type;location;lat;lon;timestamp;P1;durP1;ratioP1;P2;durP2;ratioP2
81386;SDS011;70842;50.744;7.114;2024-03-23T00:52:47;12.50;;;9.98;;
81386;SDS011;70842;50.744;7.114;2024-03-23T00:55:13;17.35;;;11.20;;
81386;SDS011;70842;50.744;7.114;2024-03-23T00:57:39;14.82;;;9.38;;
81386;SDS011;70842;50.744;7.114;2024-03-23T01:00:05;18.05;;;13.05;;
81386;SDS011;70842;50.744;7.114;2024-03-23T01:02:31;15.45;;;10.88;;
81386;SDS011;70842;50.744;7.114;2024-03-23T01:04:58;16.83;;;11.45;;
81386;SDS011;70842;50.744;7.114;2024-03-23T01:07:23;16.58;;;12.30;;
81386;SDS011;70842;50.744;7.114;2024-03-23T01:09:48;13.85;;;8.38;;
81386;SDS011;70842;50.744;7.114;2024-03-23T01:12:14;18.08;;;11.43;;
81386;SDS011;70842;50.744;7.114;2024-03-23T01:14:39;13.27;;;10.15;;
81386;SDS011;70842;50.744;7.114;2024-03-23T01:17:05;14.35;;;10.55;;
81386;SDS011;70842;50.744;7.114;2024-03-23T01:19:30;14.48;;;10.82;;
81386;SDS011;70842;50.744;7.114;2024-03-23T01:21:56;13.70;;;11.15;;
81386;SDS011;70842;50.744;7.114;2024-03-23T01:24:21;18.25;;;16.52;;
81386;SDS011;70842;50.744;7.114;2024-03-23T01:26:47;11.93;;;8.32;;
81386;SDS011;70842;50.744;7.114;2024-03-23T01:29:12;15.75;;;8.93;;
81386;SDS011;70842;50.744;7.114;2024-03-23T01:31:38;14.23;;;12.10;;
81386;SDS011;70842;50.744;7.114;2024-03-23T01:34:04;12.68;;;8.82;;
81386;SDS011;70842;50.744;7.114;2024-03-23T01:36:29;11.02;;;9.60;;
81386;SDS011;70842;50.744;7.114;2024-03-23T01:38:54;12.93;;;8.05;;
81386;SDS011;70842;50.744;7.114;2024-03-23T01:41:20;12.73;;;9.60;;
81386;SDS011;70842;50.744;7.114;2024-03-23T01:43:46;15.60;;;14.20;;
81386;SDS011;70842;50.744;7.114;2024-03-23T01:46:12;15.77;;;10.77;;
81386;SDS011;70842;50.744;7.114;2024-03-23T01:48:38;14.23;;;7.75;;
81386;SDS011;70842;50.744;7.114;2024-03-23T01:51:04;13.70;;;9.75;;
81386;SDS011;70842;50.744;7.114;2024-03-23T01:53:30;9.95;;;7.60;;
81386;SDS011;70842;50.744;7.114;2024-03-23T01:55:55;12.25;;;9.77;;
81386;SDS011;70842;50.744;7.114;2024-03-23T01:58:22;14.75;;;8.48;;
81386;SDS011;70842;50.744;7.114;2024-03-23T02:00:48;11.40;;;8.35;;
81386;SDS011;70842;50.744;7.114;2024-03-23T02:03:26;15.65;;;10.60;;
81386;SDS011;70842;50.744;7.114;2024-03-23T02:05:55;12.95;;;9.10;;
81386;SDS011;70842;50.744;7.114;2024-03-23T02:08:22;12.15;;;7.90;;
81386;SDS011;70842;50.744;7.114;2024-03-23T02:10:49;11.07;;;9.70;;
81386;SDS011;70842;50.744;7.114;2024-03-23T02:13:15;10.88;;;8.55;;
81386;SDS011;70842;50.744;7.114;2024-03-23T02:15:41;7.22;;;6.50;;
81386;SDS011;70842;50.744;7.114;2024-03-23T02:18:07;9.65;;;8.68;;
81386;SDS011;70842;50.744;7.114;2024-03-23T02:20:36;12.32;;;11.27;;
81386;SDS011;70842;50.744;7.114;2024-03-23T02:23:03;10.05;;;8.05;;
81386;SDS011;70842;50.744;7.114;2024-03-23T02:25:31;9.75;;;8.70;;
81386;SDS011;70842;50.744;7.114;2024-03-23T02:27:57;12.70;;;11.90;;
81386;SDS011;70842;50.744;7.114;2024-03-23T02:30:24;7.90;;;7.22;;
81386;SDS011;70842;50.744;7.114;2024-03-23T02:32:50;7.53;;;6.80;;
81386;SDS011;70842;50.744;7.114;2024-03-23T02:35:16;8.15;;;7.00;;
81386;SDS011;70842;50.744;7.114;2024-03-23T02:37:41;10.60;;;9.32;;
81386;SDS011;70842;50.744;7.114;2024-03-23T02:40:07;6.57;;;5.88;;
81386;SDS011;70842;50.744;7.114;2024-03-23T02:42:33;7.28;;;6.63;;
81386;SDS011;70842;50.744;7.114;2024-03-23T02:44:59;9.43;;;8.63;;
81386;SDS011;70842;50.744;7.114;2024-03-23T02:47:24;8.25;;;5.72;;
81386;SDS011;70842;50.744;7.114;2024-03-23T02:49:50;7.22;;;5.88;;
81386;SDS011;70842;50.744;7.114;2024-03-23T02:52:16;7.97;;;7.05;;
81386;SDS011;70842;50.744;7.114;2024-03-23T02:54:41;7.15;;;6.45;;
81386;SDS011;70842;50.744;7.114;2024-03-23T02:57:10;7.75;;;7.05;;
81386;SDS011;70842;50.744;7.114;2024-03-23T02:59:35;7.70;;;6.63;;
81386;SDS011;70842;50.744;7.114;2024-03-23T03:02:01;8.30;;;7.50;;
81386;SDS011;70842;50.744;7.114;2024-03-23T03:04:26;9.13;;;8.35;;
81386;SDS011;70842;50.744;7.114;2024-03-23T03:06:52;7.30;;;5.10;;
81386;SDS011;70842;50.744;7.114;2024-03-23T03:09:17;9.13;;;7.00;;
81386;SDS011;70842;50.744;7.114;2024-03-23T03:11:43;12.13;;;11.00;;
81386;SDS011;70842;50.744;7.114;2024-03-23T03:14:08;7.78;;;5.78;;
81386;SDS011;70842;50.744;7.114;2024-03-23T03:16:34;6.80;;;5.97;;
81386;SDS011;70842;50.744;7.114;2024-03-23T03:18:59;7.25;;;5.45;;
81386;SDS011;70842;50.744;7.114;2024-03-23T03:21:26;10.82;;;10.13;;
81386;SDS011;70842;50.744;7.114;2024-03-23T03:23:52;5.95;;;4.40;;
81386;SDS011;70842;50.744;7.114;2024-03-23T03:26:17;6.45;;;5.95;;
81386;SDS011;70842;50.744;7.114;2024-03-23T03:28:43;7.03;;;6.40;;
81386;SDS011;70842;50.744;7.114;2024-03-23T03:36:08;6.07;;;5.35;;
81386;SDS011;70842;50.744;7.114;2024-03-23T03:38:34;6.78;;;4.88;;
81386;SDS011;70842;50.744;7.114;2024-03-23T03:41:03;7.85;;;7.25;;
81386;SDS011;70842;50.744;7.114;2024-03-23T03:43:29;7.60;;;7.10;;
81386;SDS011;70842;50.744;7.114;2024-03-23T03:45:55;7.88;;;7.15;;
81386;SDS011;70842;50.744;7.114;2024-03-23T03:48:22;6.57;;;4.72;;
81386;SDS011;70842;50.744;7.114;2024-03-23T03:50:47;4.72;;;4.32;;
81386;SDS011;70842;50.744;7.114;2024-03-23T03:53:13;6.45;;;5.35;;
81386;SDS011;70842;50.744;7.114;2024-03-23T03:55:39;6.57;;;5.82;;
81386;SDS011;70842;50.744;7.114;2024-03-23T03:58:05;5.32;;;4.82;;
81386;SDS011;70842;50.744;7.114;2024-03-23T04:00:30;9.02;;;8.43;;
81386;SDS011;70842;50.744;7.114;2024-03-23T04:02:56;7.38;;;6.78;;
81386;SDS011;70842;50.744;7.114;2024-03-23T04:05:22;8.18;;;7.50;;
81386;SDS011;70842;50.744;7.114;2024-03-23T04:07:48;5.57;;;5.10;;
81386;SDS011;70842;50.744;7.114;2024-03-23T04:10:14;6.32;;;5.80;;
81386;SDS011;70842;50.744;7.114;2024-03-23T04:12:43;6.28;;;5.55;;
81386;SDS011;70842;50.744;7.114;2024-03-23T04:15:09;7.95;;;7.13;;
81386;SDS011;70842;50.744;7.114;2024-03-23T04:17:34;5.65;;;5.18;;
81386;SDS011;70842;50.744;7.114;2024-03-23T04:20:00;5.63;;;5.05;;
81386;SDS011;70842;50.744;7.114;2024-03-23T04:22:27;8.52;;;4.97;;
81386;SDS011;70842;50.744;7.114;2024-03-23T04:24:56;8.00;;;5.53;;
81386;SDS011;70842;50.744;7.114;2024-03-23T04:27:22;9.75;;;6.07;;
81386;SDS011;70842;50.744;7.114;2024-03-23T04:29:51;8.15;;;7.45;;
81386;SDS011;70842;50.744;7.114;2024-03-23T04:32:20;10.10;;;9.48;;
81386;SDS011;70842;50.744;7.114;2024-03-23T04:34:45;6.35;;;5.43;;
81386;SDS011;70842;50.744;7.114;2024-03-23T04:37:11;8.85;;;6.22;;
81386;SDS011;70842;50.744;7.114;2024-03-23T04:39:37;8.55;;;7.75;;
81386;SDS011;70842;50.744;7.114;2024-03-23T04:42:03;6.00;;;4.90;;
81386;SDS011;70842;50.744;7.114;2024-03-23T04:44:29;7.18;;;6.00;;
81386;SDS011;70842;50.744;7.114;2024-03-23T04:46:56;6.57;;;5.88;;
81386;SDS011;70842;50.744;7.114;2024-03-23T04:49:22;7.72;;;6.13;;
81386;SDS011;70842;50.744;7.114;2024-03-23T04:51:47;5.75;;;5.25;;
81386;SDS011;70842;50.744;7.114;2024-03-23T04:54:13;6.65;;;5.07;;
81386;SDS011;70842;50.744;7.114;2024-03-23T04:56:38;8.05;;;7.20;;
81386;SDS011;70842;50.744;7.114;2024-03-23T04:59:04;7.88;;;4.63;;
81386;SDS011;70842;50.744;7.114;2024-03-23T05:01:30;8.10;;;7.50;;
81386;SDS011;70842;50.744;7.114;2024-03-23T05:03:57;5.82;;;4.75;;
81386;SDS011;70842;50.744;7.114;2024-03-23T05:06:23;5.93;;;4.78;;
81386;SDS011;70842;50.744;7.114;2024-03-23T05:08:48;7.22;;;4.97;;
81386;SDS011;70842;50.744;7.114;2024-03-23T05:11:14;7.93;;;5.40;;
81386;SDS011;70842;50.744;7.114;2024-03-23T05:13:41;9.65;;;5.53;;
81386;SDS011;70842;50.744;7.114;2024-03-23T05:16:06;8.52;;;4.82;;
81386;SDS011;70842;50.744;7.114;2024-03-23T05:18:32;8.00;;;7.38;;
81386;SDS011;70842;50.744;7.114;2024-03-23T05:20:58;6.95;;;6.40;;
81386;SDS011;70842;50.744;7.114;2024-03-23T05:23:28;8.52;;;7.88;;
81386;SDS011;70842;50.744;7.114;2024-03-23T05:25:54;6.93;;;5.65;;
81386;SDS011;70842;50.744;7.114;2024-03-23T05:28:20;5.38;;;4.57;;
81386;SDS011;70842;50.744;7.114;2024-03-23T05:30:53;7.43;;;6.22;;
81386;SDS011;70842;50.744;7.114;2024-03-23T05:33:19;12.80;;;11.90;;
81386;SDS011;70842;50.744;7.114;2024-03-23T05:35:45;5.35;;;4.50;;
81386;SDS011;70842;50.744;7.114;2024-03-23T05:38:11;7.57;;;7.03;;
81386;SDS011;70842;50.744;7.114;2024-03-23T05:40:36;8.48;;;7.97;;
81386;SDS011;70842;50.744;7.114;2024-03-23T05:43:05;8.10;;;7.35;;
81386;SDS011;70842;50.744;7.114;2024-03-23T05:45:32;6.28;;;5.82;;
81386;SDS011;70842;50.744;7.114;2024-03-23T05:47:57;7.00;;;6.40;;
81386;SDS011;70842;50.744;7.114;2024-03-23T05:50:23;9.00;;;6.35;;
81386;SDS011;70842;50.744;7.114;2024-03-23T05:52:49;6.72;;;4.82;;
81386;SDS011;70842;50.744;7.114;2024-03-23T05:55:15;10.93;;;4.28;;
81386;SDS011;70842;50.744;7.114;2024-03-23T05:57:40;7.40;;;6.03;;
81386;SDS011;70842;50.744;7.114;2024-03-23T06:00:06;7.38;;;6.78;;
81386;SDS011;70842;50.744;7.114;2024-03-23T06:02:44;9.35;;;8.52;;
81386;SDS011;70842;50.744;7.114;2024-03-23T06:05:12;7.78;;;5.20;;
81386;SDS011;70842;50.744;7.114;2024-03-23T06:07:38;6.35;;;5.75;;
81386;SDS011;70842;50.744;7.114;2024-03-23T06:10:04;12.98;;;7.75;;
81386;SDS011;70842;50.744;7.114;2024-03-23T06:12:31;9.07;;;5.65;;
81386;SDS011;70842;50.744;7.114;2024-03-23T06:14:57;8.57;;;5.55;;
81386;SDS011;70842;50.744;7.114;2024-03-23T06:17:22;11.27;;;10.13;;
81386;SDS011;70842;50.744;7.114;2024-03-23T06:19:48;8.65;;;5.72;;
81386;SDS011;70842;50.744;7.114;2024-03-23T06:22:14;9.27;;;8.43;;
81386;SDS011;70842;50.744;7.114;2024-03-23T06:24:40;8.10;;;7.30;;
81386;SDS011;70842;50.744;7.114;2024-03-23T06:27:05;7.90;;;5.63;;
81386;SDS011;70842;50.744;7.114;2024-03-23T06:29:31;8.35;;;5.90;;
81386;SDS011;70842;50.744;7.114;2024-03-23T06:31:57;8.52;;;5.82;;
81386;SDS011;70842;50.744;7.114;2024-03-23T06:34:23;9.98;;;9.05;;
81386;SDS011;70842;50.744;7.114;2024-03-23T06:36:48;7.30;;;5.70;;
81386;SDS011;70842;50.744;7.114;2024-03-23T06:39:14;6.95;;;5.13;;
81386;SDS011;70842;50.744;7.114;2024-03-23T06:41:41;8.35;;;7.57;;
81386;SDS011;70842;50.744;7.114;2024-03-23T06:44:19;8.77;;;7.95;;
81386;SDS011;70842;50.744;7.114;2024-03-23T06:46:45;6.60;;;5.25;;
81386;SDS011;70842;50.744;7.114;2024-03-23T06:49:11;8.73;;;7.63;;
81386;SDS011;70842;50.744;7.114;2024-03-23T06:51:37;6.78;;;6.07;;
81386;SDS011;70842;50.744;7.114;2024-03-23T06:54:03;8.90;;;7.78;;
81386;SDS011;70842;50.744;7.114;2024-03-23T06:56:29;6.05;;;5.45;;
81386;SDS011;70842;50.744;7.114;2024-03-23T06:58:56;10.27;;;6.90;;
81386;SDS011;70842;50.744;7.114;2024-03-23T07:01:21;8.52;;;7.72;;
81386;SDS011;70842;50.744;7.114;2024-03-23T07:03:47;7.88;;;5.70;;
81386;SDS011;70842;50.744;7.114;2024-03-23T07:06:12;7.95;;;7.15;;
81386;SDS011;70842;50.744;7.114;2024-03-23T07:08:38;10.77;;;6.72;;
81386;SDS011;70842;50.744;7.114;2024-03-23T07:11:03;8.45;;;7.65;;
81386;SDS011;70842;50.744;7.114;2024-03-23T07:13:30;9.93;;;6.20;;
81386;SDS011;70842;50.744;7.114;2024-03-23T07:15:55;12.15;;;8.75;;
81386;SDS011;70842;50.744;7.114;2024-03-23T07:18:22;6.25;;;5.63;;
81386;SDS011;70842;50.744;7.114;2024-03-23T07:20:54;8.18;;;7.00;;
81386;SDS011;70842;50.744;7.114;2024-03-23T07:23:24;7.55;;;6.95;;
81386;SDS011;70842;50.744;7.114;2024-03-23T07:25:59;12.55;;;6.93;;
81386;SDS011;70842;50.744;7.114;2024-03-23T07:28:26;7.50;;;6.18;;
81386;SDS011;70842;50.744;7.114;2024-03-23T07:31:27;9.50;;;8.63;;
81386;SDS011;70842;50.744;7.114;2024-03-23T07:33:46;7.25;;;5.13;;
81386;SDS011;70842;50.744;7.114;2024-03-23T07:36:14;7.22;;;6.10;;
81386;SDS011;70842;50.744;7.114;2024-03-23T07:38:43;5.63;;;5.05;;
81386;SDS011;70842;50.744;7.114;2024-03-23T07:43:39;6.75;;;5.88;;
81386;SDS011;70842;50.744;7.114;2024-03-23T07:46:05;10.52;;;6.78;;
81386;SDS011;70842;50.744;7.114;2024-03-23T07:48:31;7.63;;;5.45;;
81386;SDS011;70842;50.744;7.114;2024-03-23T07:51:05;8.93;;;6.90;;
81386;SDS011;70842;50.744;7.114;2024-03-23T07:53:32;6.72;;;6.10;;
81386;SDS011;70842;50.744;7.114;2024-03-23T07:56:02;12.32;;;11.13;;
81386;SDS011;70842;50.744;7.114;2024-03-23T07:58:28;6.47;;;5.97;;
81386;SDS011;70842;50.744;7.114;2024-03-23T08:01:02;9.77;;;8.88;;
81386;SDS011;70842;50.744;7.114;2024-03-23T08:03:29;9.60;;;8.50;;
81386;SDS011;70842;50.744;7.114;2024-03-23T08:05:55;10.50;;;9.50;;
81386;SDS011;70842;50.744;7.114;2024-03-23T08:08:20;9.90;;;8.93;;
81386;SDS011;70842;50.744;7.114;2024-03-23T08:13:15;9.55;;;7.22;;
81386;SDS011;70842;50.744;7.114;2024-03-23T08:15:40;8.18;;;5.60;;
81386;SDS011;70842;50.744;7.114;2024-03-23T08:18:06;7.88;;;7.18;;
81386;SDS011;70842;50.744;7.114;2024-03-23T08:20:32;7.82;;;7.25;;
81386;SDS011;70842;50.744;7.114;2024-03-23T08:22:57;5.25;;;4.75;;
81386;SDS011;70842;50.744;7.114;2024-03-23T08:25:23;5.57;;;5.18;;
81386;SDS011;70842;50.744;7.114;2024-03-23T08:27:48;7.38;;;6.78;;
81386;SDS011;70842;50.744;7.114;2024-03-23T08:30:14;6.05;;;5.53;;
81386;SDS011;70842;50.744;7.114;2024-03-23T08:32:40;7.28;;;6.03;;
81386;SDS011;70842;50.744;7.114;2024-03-23T08:35:05;7.22;;;6.68;;
81386;SDS011;70842;50.744;7.114;2024-03-23T08:37:32;7.95;;;7.45;;
81386;SDS011;70842;50.744;7.114;2024-03-23T08:39:57;6.15;;;5.65;;
81386;SDS011;70842;50.744;7.114;2024-03-23T08:42:23;8.45;;;7.75;;
81386;SDS011;70842;50.744;7.114;2024-03-23T08:44:48;8.07;;;7.43;;
81386;SDS011;70842;50.744;7.114;2024-03-23T08:47:15;8.45;;;7.95;;
81386;SDS011;70842;50.744;7.114;2024-03-23T08:49:41;6.50;;;6.10;;
81386;SDS011;70842;50.744;7.114;2024-03-23T08:52:07;5.68;;;5.05;;
81386;SDS011;70842;50.744;7.114;2024-03-23T08:54:33;6.90;;;5.35;;
81386;SDS011;70842;50.744;7.114;2024-03-23T08:56:59;8.38;;;7.88;;
81386;SDS011;70842;50.744;7.114;2024-03-23T08:59:25;7.13;;;6.50;;
81386;SDS011;70842;50.744;7.114;2024-03-23T09:01:50;8.13;;;6.72;;
81386;SDS011;70842;50.744;7.114;2024-03-23T09:04:16;8.93;;;8.23;;
81386;SDS011;70842;50.744;7.114;2024-03-23T09:06:42;9.80;;;9.20;;
81386;SDS011;70842;50.744;7.114;2024-03-23T09:09:08;8.65;;;7.78;;
81386;SDS011;70842;50.744;7.114;2024-03-23T09:11:33;10.45;;;7.78;;
81386;SDS011;70842;50.744;7.114;2024-03-23T09:13:59;10.45;;;9.50;;
81386;SDS011;70842;50.744;7.114;2024-03-23T09:16:24;10.77;;;9.77;;
81386;SDS011;70842;50.744;7.114;2024-03-23T09:18:51;10.02;;;7.97;;
81386;SDS011;70842;50.744;7.114;2024-03-23T09:21:17;9.23;;;8.32;;
81386;SDS011;70842;50.744;7.114;2024-03-23T09:23:43;9.80;;;8.75;;
81386;SDS011;70842;50.744;7.114;2024-03-23T09:26:09;7.20;;;6.40;;
81386;SDS011;70842;50.744;7.114;2024-03-23T09:28:34;8.95;;;6.80;;
81386;SDS011;70842;50.744;7.114;2024-03-23T09:31:03;9.27;;;8.38;;
81386;SDS011;70842;50.744;7.114;2024-03-23T09:33:30;8.27;;;7.45;;
81386;SDS011;70842;50.744;7.114;2024-03-23T09:35:55;6.05;;;5.65;;
81386;SDS011;70842;50.744;7.114;2024-03-23T09:38:22;6.32;;;4.82;;
81386;SDS011;70842;50.744;7.114;2024-03-23T09:40:48;8.40;;;5.93;;
81386;SDS011;70842;50.744;7.114;2024-03-23T09:43:18;6.70;;;6.10;;
81386;SDS011;70842;50.744;7.114;2024-03-23T09:45:44;7.82;;;7.13;;
81386;SDS011;70842;50.744;7.114;2024-03-23T09:48:10;8.15;;;7.13;;
81386;SDS011;70842;50.744;7.114;2024-03-23T09:50:39;6.60;;;5.15;;
81386;SDS011;70842;50.744;7.114;2024-03-23T09:53:09;7.35;;;6.00;;
81386;SDS011;70842;50.744;7.114;2024-03-23T09:55:36;8.05;;;6.70;;
81386;SDS011;70842;50.744;7.114;2024-03-23T09:58:03;8.00;;;5.65;;
81386;SDS011;70842;50.744;7.114;2024-03-23T10:00:33;5.20;;;4.80;;
81386;SDS011;70842;50.744;7.114;2024-03-23T10:03:00;5.80;;;4.55;;
81386;SDS011;70842;50.744;7.114;2024-03-23T10:05:30;7.95;;;7.10;;
81386;SDS011;70842;50.744;7.114;2024-03-23T10:07:57;6.88;;;6.18;;
81386;SDS011;70842;50.744;7.114;2024-03-23T10:10:24;6.05;;;5.47;;
81386;SDS011;70842;50.744;7.114;2024-03-23T10:12:50;5.22;;;4.72;;
81386;SDS011;70842;50.744;7.114;2024-03-23T10:15:20;8.18;;;7.55;;
81386;SDS011;70842;50.744;7.114;2024-03-23T10:17:47;5.57;;;5.05;;
81386;SDS011;70842;50.744;7.114;2024-03-23T10:20:13;5.35;;;4.95;;
81386;SDS011;70842;50.744;7.114;2024-03-23T10:22:44;7.60;;;6.93;;
81386;SDS011;70842;50.744;7.114;2024-03-23T10:25:11;5.30;;;4.18;;
81386;SDS011;70842;50.744;7.114;2024-03-23T10:27:37;6.15;;;5.55;;
81386;SDS011;70842;50.744;7.114;2024-03-23T10:30:12;7.30;;;6.80;;
81386;SDS011;70842;50.744;7.114;2024-03-23T10:32:40;8.85;;;7.60;;
81386;SDS011;70842;50.744;7.114;2024-03-23T10:37:44;8.52;;;7.93;;
81386;SDS011;70842;50.744;7.114;2024-03-23T10:40:11;5.20;;;4.35;;
81386;SDS011;70842;50.744;7.114;2024-03-23T10:42:38;7.40;;;6.95;;
81386;SDS011;70842;50.744;7.114;2024-03-23T10:45:05;4.63;;;4.32;;
81386;SDS011;70842;50.744;7.114;2024-03-23T10:47:31;4.85;;;4.45;;
81386;SDS011;70842;50.744;7.114;2024-03-23T10:49:57;6.10;;;5.78;;
81386;SDS011;70842;50.744;7.114;2024-03-23T10:52:23;5.00;;;4.70;;
81386;SDS011;70842;50.744;7.114;2024-03-23T10:54:50;4.97;;;4.68;;
81386;SDS011;70842;50.744;7.114;2024-03-23T10:57:20;5.15;;;4.85;;
81386;SDS011;70842;50.744;7.114;2024-03-23T10:59:50;4.93;;;4.63;;
81386;SDS011;70842;50.744;7.114;2024-03-23T11:02:19;5.75;;;5.45;;
81386;SDS011;70842;50.744;7.114;2024-03-23T11:04:46;5.47;;;5.07;;
81386;SDS011;70842;50.744;7.114;2024-03-23T11:09:55;6.53;;;6.10;;
81386;SDS011;70842;50.744;7.114;2024-03-23T11:14:54;7.32;;;6.93;;
81386;SDS011;70842;50.744;7.114;2024-03-23T11:17:23;6.32;;;5.93;;
81386;SDS011;70842;50.744;7.114;2024-03-23T11:22:47;6.30;;;5.80;;
81386;SDS011;70842;50.744;7.114;2024-03-23T11:27:44;5.68;;;4.88;;
81386;SDS011;70842;50.744;7.114;2024-03-23T11:30:14;10.15;;;9.52;;
81386;SDS011;70842;50.744;7.114;2024-03-23T11:32:44;6.75;;;6.15;;
81386;SDS011;70842;50.744;7.114;2024-03-23T11:35:10;8.02;;;7.30;;
81386;SDS011;70842;50.744;7.114;2024-03-23T11:38:00;5.68;;;5.28;;
81386;SDS011;70842;50.744;7.114;2024-03-23T11:40:52;6.60;;;6.10;;
81386;SDS011;70842;50.744;7.114;2024-03-23T11:43:18;7.38;;;6.88;;
81386;SDS011;70842;50.744;7.114;2024-03-23T11:45:47;4.40;;;4.10;;
81386;SDS011;70842;50.744;7.114;2024-03-23T11:48:21;6.05;;;5.57;;
81386;SDS011;70842;50.744;7.114;2024-03-23T11:50:48;6.57;;;6.00;;
81386;SDS011;70842;50.744;7.114;2024-03-23T11:53:23;6.40;;;5.93;;
81386;SDS011;70842;50.744;7.114;2024-03-23T11:55:50;9.02;;;8.18;;
81386;SDS011;70842;50.744;7.114;2024-03-23T11:58:17;8.85;;;7.40;;
81386;SDS011;70842;50.744;7.114;2024-03-23T12:00:57;6.80;;;6.03;;
81386;SDS011;70842;50.744;7.114;2024-03-23T12:03:30;10.00;;;9.30;;
81386;SDS011;70842;50.744;7.114;2024-03-23T12:05:59;6.38;;;5.80;;
81386;SDS011;70842;50.744;7.114;2024-03-23T12:08:34;8.93;;;7.65;;
81386;SDS011;70842;50.744;7.114;2024-03-23T12:11:07;7.05;;;6.55;;
81386;SDS011;70842;50.744;7.114;2024-03-23T12:13:38;7.72;;;7.18;;
81386;SDS011;70842;50.744;7.114;2024-03-23T12:18:37;9.07;;;8.48;;
81386;SDS011;70842;50.744;7.114;2024-03-23T12:21:03;6.95;;;6.35;;
81386;SDS011;70842;50.744;7.114;2024-03-23T12:23:29;8.45;;;7.75;;
81386;SDS011;70842;50.744;7.114;2024-03-23T12:25:55;6.95;;;6.15;;
81386;SDS011;70842;50.744;7.114;2024-03-23T12:28:20;5.78;;;4.90;;
81386;SDS011;70842;50.744;7.114;2024-03-23T12:30:46;5.75;;;5.28;;
81386;SDS011;70842;50.744;7.114;2024-03-23T12:33:11;7.45;;;6.50;;
81386;SDS011;70842;50.744;7.114;2024-03-23T12:35:37;9.68;;;8.80;;
81386;SDS011;70842;50.744;7.114;2024-03-23T12:38:03;8.70;;;7.90;;
81386;SDS011;70842;50.744;7.114;2024-03-23T12:40:28;10.13;;;6.38;;
81386;SDS011;70842;50.744;7.114;2024-03-23T12:42:54;6.82;;;6.22;;
81386;SDS011;70842;50.744;7.114;2024-03-23T12:45:21;6.68;;;6.10;;
81386;SDS011;70842;50.744;7.114;2024-03-23T12:47:47;6.57;;;6.07;;
81386;SDS011;70842;50.744;7.114;2024-03-23T12:50:13;4.70;;;3.88;;
81386;SDS011;70842;50.744;7.114;2024-03-23T12:52:38;4.55;;;4.15;;
81386;SDS011;70842;50.744;7.114;2024-03-23T12:55:04;5.40;;;4.82;;
81386;SDS011;70842;50.744;7.114;2024-03-23T12:57:33;6.15;;;5.75;;
81386;SDS011;70842;50.744;7.114;2024-03-23T12:59:58;6.20;;;5.80;;
81386;SDS011;70842;50.744;7.114;2024-03-23T13:02:24;5.00;;;4.68;;
81386;SDS011;70842;50.744;7.114;2024-03-23T13:04:51;5.85;;;5.45;;
81386;SDS011;70842;50.744;7.114;2024-03-23T13:07:20;2.85;;;2.65;;
81386;SDS011;70842;50.744;7.114;2024-03-23T13:09:47;7.60;;;7.18;;
81386;SDS011;70842;50.744;7.114;2024-03-23T13:12:21;5.07;;;4.72;;
81386;SDS011;70842;50.744;7.114;2024-03-23T13:14:49;4.93;;;4.53;;
81386;SDS011;70842;50.744;7.114;2024-03-23T13:17:14;5.45;;;5.07;;
81386;SDS011;70842;50.744;7.114;2024-03-23T13:19:40;5.07;;;4.68;;
81386;SDS011;70842;50.744;7.114;2024-03-23T13:22:06;4.65;;;4.32;;
81386;SDS011;70842;50.744;7.114;2024-03-23T13:24:32;5.70;;;5.40;;
81386;SDS011;70842;50.744;7.114;2024-03-23T13:26:58;4.88;;;4.50;;
81386;SDS011;70842;50.744;7.114;2024-03-23T13:29:23;4.60;;;4.22;;
81386;SDS011;70842;50.744;7.114;2024-03-23T13:31:50;4.28;;;3.90;;
81386;SDS011;70842;50.744;7.114;2024-03-23T13:34:16;6.10;;;5.70;;
81386;SDS011;70842;50.744;7.114;2024-03-23T13:36:42;6.38;;;5.78;;
81386;SDS011;70842;50.744;7.114;2024-03-23T13:39:08;4.03;;;3.53;;
81386;SDS011;70842;50.744;7.114;2024-03-23T13:41:41;3.90;;;3.05;;
81386;SDS011;70842;50.744;7.114;2024-03-23T13:44:09;3.92;;;3.63;;
81386;SDS011;70842;50.744;7.114;2024-03-23T13:46:36;5.30;;;4.90;;
81386;SDS011;70842;50.744;7.114;2024-03-23T13:49:02;7.15;;;6.70;;
81386;SDS011;70842;50.744;7.114;2024-03-23T13:51:28;4.00;;;3.70;;
81386;SDS011;70842;50.744;7.114;2024-03-23T13:53:54;5.80;;;5.40;;
81386;SDS011;70842;50.744;7.114;2024-03-23T13:56:20;4.07;;;3.78;;
81386;SDS011;70842;50.744;7.114;2024-03-23T13:58:46;3.35;;;3.05;;
81386;SDS011;70842;50.744;7.114;2024-03-23T14:01:15;7.80;;;7.28;;
81386;SDS011;70842;50.744;7.114;2024-03-23T14:03:41;4.22;;;3.83;;
81386;SDS011;70842;50.744;7.114;2024-03-23T14:06:08;5.07;;;4.68;;
81386;SDS011;70842;50.744;7.114;2024-03-23T14:08:34;3.72;;;3.42;;
81386;SDS011;70842;50.744;7.114;2024-03-23T14:11:02;5.80;;;4.05;;
81386;SDS011;70842;50.744;7.114;2024-03-23T14:13:29;6.97;;;6.30;;
81386;SDS011;70842;50.744;7.114;2024-03-23T14:15:55;6.35;;;4.93;;
81386;SDS011;70842;50.744;7.114;2024-03-23T14:18:20;5.05;;;4.47;;
81386;SDS011;70842;50.744;7.114;2024-03-23T14:20:48;5.57;;;5.10;;
81386;SDS011;70842;50.744;7.114;2024-03-23T14:23:17;5.35;;;4.95;;
81386;SDS011;70842;50.744;7.114;2024-03-23T14:25:42;5.78;;;5.28;;
81386;SDS011;70842;50.744;7.114;2024-03-23T14:28:08;5.00;;;4.30;;
81386;SDS011;70842;50.744;7.114;2024-03-23T14:30:40;6.05;;;5.55;;
81386;SDS011;70842;50.744;7.114;2024-03-23T14:33:07;5.43;;;5.03;;
81386;SDS011;70842;50.744;7.114;2024-03-23T14:35:32;4.97;;;4.53;;
81386;SDS011;70842;50.744;7.114;2024-03-23T14:37:58;4.20;;;3.88;;
81386;SDS011;70842;50.744;7.114;2024-03-23T14:40:24;6.32;;;4.03;;
81386;SDS011;70842;50.744;7.114;2024-03-23T14:42:52;6.05;;;5.63;;
81386;SDS011;70842;50.744;7.114;2024-03-23T14:45:20;4.80;;;4.50;;
81386;SDS011;70842;50.744;7.114;2024-03-23T14:47:50;4.82;;;4.43;;
81386;SDS011;70842;50.744;7.114;2024-03-23T14:50:16;6.93;;;6.53;;
81386;SDS011;70842;50.744;7.114;2024-03-23T14:52:45;5.60;;;5.30;;
81386;SDS011;70842;50.744;7.114;2024-03-23T14:55:11;3.42;;;3.22;;
81386;SDS011;70842;50.744;7.114;2024-03-23T14:57:37;3.35;;;3.13;;
81386;SDS011;70842;50.744;7.114;2024-03-23T15:00:06;4.53;;;4.10;;
81386;SDS011;70842;50.744;7.114;2024-03-23T15:02:33;4.43;;;4.03;;
81386;SDS011;70842;50.744;7.114;2024-03-23T15:05:00;3.85;;;3.53;;
81386;SDS011;70842;50.744;7.114;2024-03-23T15:07:26;5.93;;;5.60;;
81386;SDS011;70842;50.744;7.114;2024-03-23T15:09:52;4.32;;;3.92;;
81386;SDS011;70842;50.744;7.114;2024-03-23T15:12:19;6.07;;;5.68;;
81386;SDS011;70842;50.744;7.114;2024-03-23T15:14:44;5.03;;;4.72;;
81386;SDS011;70842;50.744;7.114;2024-03-23T15:17:11;3.97;;;3.72;;
81386;SDS011;70842;50.744;7.114;2024-03-23T15:19:36;4.38;;;4.03;;
81386;SDS011;70842;50.744;7.114;2024-03-23T15:22:02;5.05;;;4.55;;
81386;SDS011;70842;50.744;7.114;2024-03-23T15:24:28;6.95;;;6.47;;
81386;SDS011;70842;50.744;7.114;2024-03-23T15:26:54;3.25;;;2.97;;
81386;SDS011;70842;50.744;7.114;2024-03-23T15:29:20;4.28;;;3.97;;
81386;SDS011;70842;50.744;7.114;2024-03-23T15:31:47;3.60;;;3.40;;
81386;SDS011;70842;50.744;7.114;2024-03-23T15:34:16;5.72;;;5.30;;
81386;SDS011;70842;50.744;7.114;2024-03-23T15:36:41;7.07;;;6.47;;
81386;SDS011;70842;50.744;7.114;2024-03-23T15:39:07;6.68;;;5.82;;
81386;SDS011;70842;50.744;7.114;2024-03-23T15:41:32;6.63;;;6.22;;
81386;SDS011;70842;50.744;7.114;2024-03-23T15:44:00;5.80;;;5.30;;
81386;SDS011;70842;50.744;7.114;2024-03-23T15:46:26;4.97;;;4.57;;
81386;SDS011;70842;50.744;7.114;2024-03-23T15:48:51;6.43;;;6.07;;
81386;SDS011;70842;50.744;7.114;2024-03-23T15:51:17;5.55;;;5.15;;
81386;SDS011;70842;50.744;7.114;2024-03-23T15:53:43;3.70;;;3.40;;
81386;SDS011;70842;50.744;7.114;2024-03-23T15:56:08;5.05;;;4.47;;
81386;SDS011;70842;50.744;7.114;2024-03-23T15:58:34;3.63;;;3.08;;
81386;SDS011;70842;50.744;7.114;2024-03-23T16:01:00;5.68;;;5.35;;